Time;durP1;ratioP1;P1;durP2;ratioP2;P2;SDS_P1;SDS_P2;PMS_P1;PMS_P2;Temp;Humidity;BMP_temperature;BMP_pressure;BME280_temperature;BME280_humidity;BME280_pressure;Samples;Min_cycle;Max_cycle;Signal;HPM_P1;HPM_P2
2022/02/12 00:00:02;;;;;;;17.30;6.90;;;;;;;1.74;74.77;101733.42;109792;1260;22351;-81
2022/02/12 00:03:00;;;;;;;13.20;7.20;;;;;;;1.66;74.71;101737.00;109967;1259;21966;-78
2022/02/12 00:05:31;;;;;;;13.40;7.10;;;;;;;1.63;74.74;101741.12;109217;1264;23660;-77
2022/02/12 00:08:06;;;;;;;12.90;6.70;;;;;;;1.61;74.84;101747.13;109337;1265;23042;-78
2022/02/12 00:10:38;;;;;;;12.70;6.80;;;;;;;1.59;74.85;101755.22;109337;1265;23041;-78
2022/02/12 00:13:12;;;;;;;11.30;6.10;;;;;;;1.56;74.89;101762.66;108997;1265;22101;-78
2022/02/12 00:16:35;;;;;;;11.30;6.00;;;;;;;1.53;74.96;101762.08;108734;1270;22253;-81
2022/02/12 00:20:53;;;;;;;11.30;5.70;;;;;;;1.46;74.98;101763.00;108183;1275;22379;-82
2022/02/12 00:24:41;;;;;;;11.60;6.40;;;;;;;1.35;74.97;101775.66;108292;1270;23603;-80
2022/02/12 00:27:22;;;;;;;16.60;6.70;;;;;;;1.32;75.08;101780.48;108402;1276;21992;-77
2022/02/12 00:29:54;;;;;;;12.90;6.00;;;;;;;1.32;75.09;101782.41;108431;1276;24361;-77
2022/02/12 00:32:29;;;;;;;11.50;5.80;;;;;;;1.29;75.07;101786.86;108389;1276;23002;-78
2022/02/12 00:35:01;;;;;;;10.80;6.00;;;;;;;1.25;75.03;101791.90;107951;1282;24535;-78
2022/02/12 00:37:47;;;;;;;11.90;6.70;;;;;;;1.22;75.01;101793.96;107983;1279;22771;-79
2022/02/12 00:40:17;;;;;;;;;;;;;;;1.19;75.05;101793.62;108121;1279;23635;-77
2022/02/12 00:42:51;;;;;;;13.60;6.20;;;;;;;1.09;75.10;101800.85;108186;1279;22078;-78
2022/02/12 00:45:20;;;;;;;11.00;5.30;;;;;;;1.04;75.20;101805.73;108389;1276;21982;-78
2022/02/12 00:47:53;;;;;;;17.00;5.50;;;;;;;1.04;75.19;101809.76;108428;1276;22018;-78
2022/02/12 00:50:30;;;;;;;14.40;5.70;;;;;;;1.02;75.11;101813.30;108536;1270;22324;-78
2022/02/12 00:53:00;;;;;;;13.50;5.50;;;;;;;1.00;75.19;101816.89;108590;1267;21997;-78
2022/02/12 00:55:31;;;;;;;11.00;5.40;;;;;;;0.98;75.13;101821.65;108907;1267;21989;-78
2022/02/12 00:58:08;;;;;;;14.50;5.90;;;;;;;0.96;75.15;101820.17;109153;1259;21973;-78
2022/02/12 01:00:43;;;;;;;9.80;5.60;;;;;;;0.93;75.11;101827.06;109796;1261;23609;-78
2022/02/12 01:03:16;;;;;;;10.60;6.20;;;;;;;0.90;75.13;101828.95;109351;1259;21988;-78
2022/02/12 01:05:50;;;;;;;19.20;6.40;;;;;;;0.87;75.12;101829.07;109700;1259;22043;-78
2022/02/12 01:08:22;;;;;;;18.10;6.30;;;;;;;0.84;75.11;101837.21;109706;1259;22289;-79
2022/02/12 01:11:03;;;;;;;15.50;6.80;;;;;;;0.80;75.21;101843.77;109712;1259;21976;-79
2022/02/12 01:13:39;;;;;;;14.10;5.30;;;;;;;0.78;75.13;101849.79;109999;1259;23714;-77
2022/02/12 01:16:10;;;;;;;11.50;5.80;;;;;;;0.75;75.26;101853.56;109830;1261;22692;-78
2022/02/12 01:18:45;;;;;;;14.90;6.10;;;;;;;0.73;75.23;101856.93;109942;1259;22466;-77
2022/02/12 01:21:22;;;;;;;15.20;5.50;;;;;;;0.72;75.26;101857.68;109904;1259;21980;-78
2022/02/12 01:23:55;;;;;;;12.40;5.70;;;;;;;0.70;75.28;101860.52;109352;1265;21984;-78
2022/02/12 01:26:27;;;;;;;13.40;5.90;;;;;;;0.69;75.30;101860.06;109236;1264;21982;-77
2022/02/12 01:28:59;;;;;;;11.10;5.00;;;;;;;0.68;75.40;101857.65;109256;1264;21982;-79
2022/02/12 01:31:28;;;;;;;9.80;4.70;;;;;;;0.67;75.29;101861.86;109249;1267;23039;-78
2022/02/12 01:34:09;;;;;;;9.60;5.40;;;;;;;0.65;75.26;101870.30;109283;1264;23400;-79
2022/02/12 01:36:39;;;;;;;9.90;5.00;;;;;;;0.62;75.26;101878.90;109239;1265;22937;-79
2022/02/12 01:39:08;;;;;;;13.70;5.80;;;;;;;0.62;75.29;101880.46;109121;1264;23983;-79
2022/02/12 01:41:57;;;;;;;15.50;5.50;;;;;;;0.63;75.30;101884.95;109543;1259;23609;-78
2022/02/12 01:44:38;;;;;;;13.60;6.70;;;;;;;0.60;75.28;101890.27;109806;1259;22013;-78
2022/02/12 01:47:14;;;;;;;14.30;6.80;;;;;;;0.56;75.29;101890.80;109468;1260;21999;-79
2022/02/12 01:49:51;;;;;;;13.20;6.10;;;;;;;0.53;75.29;101899.06;109823;1259;23533;-79
2022/02/12 01:52:27;;;;;;;15.00;5.50;;;;;;;0.52;75.31;101901.03;109556;1258;23751;-79
2022/02/12 01:54:59;;;;;;;14.00;5.80;;;;;;;0.51;75.38;101901.40;110010;1259;21973;-79
2022/02/12 01:57:28;;;;;;;9.90;4.90;;;;;;;0.52;75.43;101907.27;109752;1259;21984;-78
2022/02/12 02:00:06;;;;;;;13.40;5.20;;;;;;;0.51;75.43;101912.51;109580;1260;22059;-78
2022/02/12 02:02:41;;;;;;;12.60;5.50;;;;;;;0.50;75.42;101922.24;109106;1267;23019;-78
2022/02/12 02:05:16;;;;;;;10.60;4.90;;;;;;;0.50;75.34;101925.04;109201;1265;23029;-79
2022/02/12 02:07:46;;;;;;;12.80;5.50;;;;;;;0.50;75.34;101926.61;109315;1265;21976;-78
2022/02/12 02:10:18;;;;;;;14.90;5.90;;;;;;;0.49;75.40;101929.58;109250;1264;23835;-78
2022/02/12 02:12:49;;;;;;;15.90;5.60;;;;;;;0.48;75.45;101934.46;108735;1273;22001;-78
2022/02/12 02:15:18;;;;;;;11.40;5.30;;;;;;;0.46;75.36;101933.16;108765;1273;21999;-79
2022/02/12 02:17:57;;;;;;;11.50;5.10;;;;;;;0.43;75.36;101933.13;108823;1270;23593;-82
2022/02/12 02:20:32;;;;;;;11.90;5.10;;;;;;;0.41;75.54;101936.66;108863;1267;23174;-81
2022/02/12 02:23:08;;;;;;;9.20;4.80;;;;;;;0.41;75.52;101942.55;109159;1267;22460;-82
2022/02/12 02:25:40;;;;;;;8.10;4.60;;;;;;;0.43;75.58;101947.48;108993;1272;22005;-79
2022/02/12 02:28:11;;;;;;;14.50;5.10;;;;;;;0.45;75.51;101954.86;108372;1276;23085;-79
2022/02/12 02:30:42;;;;;;;11.10;5.00;;;;;;;0.44;75.30;101949.70;108459;1272;23071;-78
2022/02/12 02:33:18;;;;;;;12.80;4.60;;;;;;;0.41;75.26;101952.58;108707;1273;22860;-78
2022/02/12 02:35:51;;;;;;;15.40;5.90;;;;;;;0.39;75.20;101953.53;108539;1273;21993;-79
2022/02/12 02:38:32;;;;;;;12.50;5.60;;;;;;;0.36;75.19;101958.50;109006;1273;23215;-78
2022/02/12 02:41:01;;;;;;;13.80;5.00;;;;;;;0.33;75.21;101961.42;108825;1273;23725;-79
2022/02/12 02:43:46;;;;;;;13.10;5.30;;;;;;;0.31;75.25;101965.52;108710;1267;23693;-78
2022/02/12 02:46:19;;;;;;;12.50;4.70;;;;;;;0.28;75.36;101970.81;108788;1267;22023;-79
2022/02/12 02:48:55;;;;;;;13.40;5.50;;;;;;;0.25;75.38;101973.19;108924;1267;22442;-79
2022/02/12 02:57:08;;;;;;;11.30;4.80;;;;;;;0.20;75.57;101986.36;108862;1270;21997;-79
2022/02/12 02:59:44;;;;;;;18.10;5.70;;;;;;;0.20;75.60;101988.80;108838;1273;23143;-78
2022/02/12 03:02:22;;;;;;;15.60;6.10;;;;;;;0.18;75.59;101989.91;108943;1273;22053;-78
2022/02/12 03:04:54;;;;;;;11.50;5.70;;;;;;;0.18;75.56;101998.22;108845;1267;23097;-79
2022/02/12 03:07:26;;;;;;;14.80;5.90;;;;;;;0.17;75.59;101998.63;109207;1267;21968;-79
2022/02/12 03:09:59;;;;;;;13.30;5.80;;;;;;;0.16;75.60;102001.08;109268;1265;21975;-78
2022/02/12 03:12:39;;;;;;;12.60;5.70;;;;;;;0.15;75.66;102010.99;109339;1267;22756;-78
2022/02/12 03:15:16;;;;;;;13.50;5.40;;;;;;;0.15;75.56;102018.79;109589;1261;21982;-79
2022/02/12 03:17:49;;;;;;;11.80;5.50;;;;;;;0.14;75.56;102019.52;109913;1261;22996;-79
2022/02/12 03:20:29;;;;;;;12.90;5.50;;;;;;;0.13;75.56;102018.02;109320;1264;21997;-78
2022/02/12 03:23:14;;;;;;;13.30;4.10;;;;;;;0.10;75.54;102020.37;109385;1261;21986;-79
2022/02/12 03:25:46;;;;;;;13.20;4.90;;;;;;;0.09;75.57;102024.94;109207;1267;22755;-80
2022/02/12 03:28:20;;;;;;;13.80;5.90;;;;;;;0.09;75.57;102032.91;109236;1267;22078;-80
2022/02/12 03:30:52;;;;;;;13.00;4.70;;;;;;;0.10;75.58;102036.69;109169;1267;21998;-79
2022/02/12 03:33:46;;;;;;;12.10;5.20;;;;;;;0.09;75.55;102040.54;108949;1269;22000;-77
2022/02/12 03:36:15;;;;;;;14.00;4.90;;;;;;;0.08;75.53;102049.22;108804;1270;23693;-77
2022/02/12 03:38:50;;;;;;;14.60;5.40;;;;;;;0.08;75.47;102054.05;108805;1270;22758;-78
2022/02/12 03:41:25;;;;;;;13.10;7.40;;;;;;;0.08;75.40;102052.52;108567;1274;22616;-78
2022/02/12 03:43:57;;;;;;;17.50;8.10;;;;;;;0.06;75.42;102055.16;108482;1275;22016;-78
2022/02/12 03:46:27;;;;;;;20.20;9.30;;;;;;;0.04;75.33;102057.52;108577;1273;23093;-79
2022/02/12 03:49:00;;;;;;;17.00;7.90;;;;;;;0.03;75.39;102063.98;108613;1274;21984;-79
2022/02/12 03:51:34;;;;;;;21.00;8.10;;;;;;;0.01;75.43;102065.42;108800;1267;21986;-79
2022/02/12 03:54:03;;;;;;;20.30;8.40;;;;;;;-0.01;75.50;102066.17;108742;1273;22020;-79
2022/02/12 03:56:33;;;;;;;15.00;7.30;;;;;;;-0.03;75.50;102065.39;108536;1273;22970;-79
2022/02/12 03:59:08;;;;;;;15.40;7.10;;;;;;;-0.06;75.37;102064.80;108527;1270;21988;-79
2022/02/12 04:01:42;;;;;;;13.30;6.30;;;;;;;-0.08;75.47;102064.04;108810;1270;21997;-80
2022/02/12 04:04:12;;;;;;;11.20;5.80;;;;;;;-0.09;75.57;102071.86;108780;1276;22459;-78
2022/02/12 04:06:41;;;;;;;12.50;6.20;;;;;;;-0.11;75.68;102073.48;108587;1276;21985;-79
2022/02/12 04:09:19;;;;;;;13.10;6.40;;;;;;;-0.13;75.73;102077.18;108144;1279;22931;-79
2022/02/12 04:11:49;;;;;;;16.90;7.30;;;;;;;-0.15;75.69;102078.83;107745;1279;22003;-79
2022/02/12 04:14:19;;;;;;;18.20;7.00;;;;;;;-0.15;75.77;102079.70;108277;1280;23060;-79
2022/02/12 04:16:50;;;;;;;;;;;;;;;-0.15;75.84;102084.56;108062;1278;24320;-79
2022/02/12 04:19:19;;;;;;;16.00;6.10;;;;;;;-0.22;75.95;102089.98;108586;1278;23632;-79
2022/02/12 04:21:49;;;;;;;13.90;6.90;;;;;;;-0.25;75.92;102090.42;108523;1275;23706;-78
2022/02/12 04:24:21;;;;;;;19.70;7.40;;;;;;;-0.23;75.96;102096.11;108471;1276;21991;-79
2022/02/12 04:27:03;;;;;;;16.60;7.60;;;;;;;-0.23;76.04;102097.99;108431;1275;23606;-79
2022/02/12 04:29:40;;;;;;;17.00;7.40;;;;;;;-0.24;75.99;102100.61;108701;1270;22292;-78
2022/02/12 04:32:10;;;;;;;19.10;6.30;;;;;;;-0.24;75.95;102108.06;108508;1273;22050;-78
2022/02/12 04:34:41;;;;;;;13.80;7.00;;;;;;;-0.23;75.98;102112.71;108867;1267;21994;-77
2022/02/12 04:37:14;;;;;;;14.50;7.00;;;;;;;-0.23;75.95;102116.70;109072;1267;23694;-78
2022/02/12 04:39:49;;;;;;;16.90;8.30;;;;;;;-0.23;75.99;102122.60;108658;1267;564433;-79
2022/02/12 04:42:25;;;;;;;16.00;7.40;;;;;;;-0.25;75.94;102119.52;108806;1270;22874;-78
2022/02/12 04:44:55;;;;;;;13.60;7.00;;;;;;;-0.24;76.02;102121.77;108819;1271;22102;-79
2022/02/12 04:47:29;;;;;;;13.40;6.30;;;;;;;-0.24;76.03;102124.86;108752;1271;23043;-79
2022/02/12 04:50:01;;;;;;;11.60;6.20;;;;;;;-0.25;76.03;102125.77;109016;1267;21968;-79
2022/02/12 04:52:34;;;;;;;14.60;6.40;;;;;;;-0.25;76.02;102128.56;109094;1267;21976;-78
2022/02/12 04:55:16;;;;;;;22.30;6.60;;;;;;;-0.26;75.96;102130.33;109279;1267;22092;-79
2022/02/12 04:57:50;;;;;;;18.40;7.10;;;;;;;-0.30;76.07;102131.13;109519;1267;22094;-79
2022/02/12 05:00:31;;;;;;;16.60;8.00;;;;;;;-0.30;76.08;102130.44;109401;1261;23713;-79
2022/02/12 05:03:01;;;;;;;21.70;8.80;;;;;;;-0.30;76.20;102133.20;109637;1262;22078;-80
2022/02/12 05:05:33;;;;;;;22.70;9.20;;;;;;;-0.29;76.31;102131.11;109587;1261;22211;-78
2022/02/12 05:08:02;;;;;;;24.20;8.30;;;;;;;-0.30;76.21;102135.11;109415;1263;23234;-79
2022/02/12 05:10:39;;;;;;;21.40;8.90;;;;;;;-0.30;76.29;102137.91;109264;1264;23048;-79
2022/02/12 05:13:13;;;;;;;15.90;9.10;;;;;;;-0.30;76.30;102132.36;109496;1264;22053;-79
2022/02/12 05:15:46;;;;;;;19.70;9.40;;;;;;;-0.31;76.40;102132.56;109206;1264;21988;-79
2022/02/12 05:18:15;;;;;;;20.20;9.30;;;;;;;-0.30;76.49;102133.59;109335;1266;22026;-78
2022/02/12 05:20:48;;;;;;;20.20;10.00;;;;;;;-0.30;76.57;102133.23;108638;1273;23139;-80
2022/02/12 05:23:26;;;;;;;22.60;10.20;;;;;;;-0.30;76.52;102129.93;108594;1273;21997;-79
2022/02/12 05:25:57;;;;;;;28.40;12.10;;;;;;;-0.31;76.53;102126.15;108859;1273;22058;-79
2022/02/12 05:28:28;;;;;;;22.70;11.00;;;;;;;-0.31;76.53;102129.79;109077;1267;24536;-79
2022/02/12 05:30:58;;;;;;;18.10;11.00;;;;;;;-0.31;76.57;102134.98;109015;1267;22040;-79
2022/02/12 05:33:37;;;;;;;;;;;;;;;-0.31;76.68;102135.86;108969;1268;21988;-79
2022/02/12 05:36:11;;;;;;;18.10;9.10;;;;;;;-0.38;76.72;102135.95;109426;1267;23715;-78
2022/02/12 05:38:47;;;;;;;15.60;8.60;;;;;;;-0.41;76.78;102143.66;109200;1263;21987;-78
2022/02/12 05:41:21;;;;;;;20.90;10.10;;;;;;;-0.40;76.76;102146.74;109212;1269;21959;-79
2022/02/12 05:43:54;;;;;;;21.10;9.80;;;;;;;-0.39;76.86;102153.62;109018;1268;22029;-78
2022/02/12 05:46:23;;;;;;;21.90;10.70;;;;;;;-0.38;76.91;102155.33;109012;1267;22860;-77
2022/02/12 05:48:57;;;;;;;23.50;12.60;;;;;;;-0.39;76.84;102154.13;109008;1269;22801;-77
2022/02/12 05:51:31;;;;;;;24.70;15.30;;;;;;;-0.39;76.81;102153.29;108948;1267;23108;-78
2022/02/12 05:54:02;;;;;;;31.10;17.60;;;;;;;-0.41;76.83;102158.70;109004;1267;22803;-78
2022/02/12 05:56:36;;;;;;;;;;;;;;;-0.41;76.85;102165.99;108962;1267;22053;-78
2022/02/12 05:59:08;;;;;;;19.30;13.20;;;;;;;-0.49;76.84;102170.41;109009;1261;22612;-78
2022/02/12 06:01:40;;;;;;;21.90;12.60;;;;;;;-0.53;76.96;102172.62;109641;1264;23623;-78
2022/02/12 06:04:09;;;;;;;16.40;11.20;;;;;;;-0.52;76.99;102169.47;109593;1262;21981;-80
2022/02/12 06:06:44;;;;;;;21.90;12.70;;;;;;;-0.50;77.00;102173.20;109096;1267;23772;-78
2022/02/12 06:09:15;;;;;;;21.70;12.70;;;;;;;-0.50;76.91;102175.11;108964;1267;21988;-80
2022/02/12 06:11:49;;;;;;;17.30;12.00;;;;;;;-0.50;76.98;102177.35;108586;1273;23663;-78
2022/02/12 06:14:24;;;;;;;22.30;14.20;;;;;;;-0.51;77.01;102174.78;108871;1273;22033;-78
2022/02/12 06:17:00;;;;;;;19.30;11.50;;;;;;;-0.51;76.93;102180.67;108752;1273;22497;-79
2022/02/12 06:19:29;;;;;;;19.80;11.20;;;;;;;-0.49;77.06;102182.18;108484;1276;24137;-78
2022/02/12 06:22:08;;;;;;;21.90;11.60;;;;;;;-0.47;77.17;102179.70;108192;1279;22582;-79
2022/02/12 06:24:37;;;;;;;30.40;17.40;;;;;;;-0.45;77.25;102181.34;108153;1279;22012;-79
2022/02/12 06:27:07;;;;;;;31.70;19.20;;;;;;;-0.42;77.24;102189.74;108286;1279;22005;-79
2022/02/12 06:29:36;;;;;;;37.70;24.60;;;;;;;-0.41;77.16;102199.21;108075;1276;22104;-79
2022/02/12 06:32:15;;;;;;;28.10;20.30;;;;;;;-0.39;77.18;102203.83;108795;1270;22942;-79
2022/02/12 06:34:46;;;;;;;29.60;17.20;;;;;;;-0.37;77.31;102207.05;108784;1270;23153;-78
2022/02/12 06:37:19;;;;;;;25.80;14.90;;;;;;;-0.36;77.28;102208.75;108762;1273;22004;-78
2022/02/12 06:39:49;;;;;;;21.90;13.40;;;;;;;-0.35;77.34;102214.08;108596;1273;23634;-78
2022/02/12 06:42:25;;;;;;;18.70;11.30;;;;;;;-0.35;77.40;102220.11;108559;1273;22061;-80
2022/02/12 06:45:11;;;;;;;19.00;11.40;;;;;;;-0.34;77.38;102226.84;108614;1276;21988;-79
2022/02/12 06:47:42;;;;;;;22.30;13.40;;;;;;;-0.35;77.40;102229.66;108954;1273;22224;-80
2022/02/12 06:50:14;;;;;;;25.60;14.70;;;;;;;-0.33;77.50;102234.09;109160;1273;23643;-79
2022/02/12 06:52:47;;;;;;;27.40;15.10;;;;;;;-0.29;77.48;102233.80;109174;1271;22025;-81
2022/02/12 06:55:34;;;;;;;;;;;;;;;-0.28;77.55;102235.13;109199;1267;22211;-82
2022/02/12 06:58:24;;;;;;;31.00;15.10;;;;;;;-0.35;77.56;102237.28;109633;1267;22985;-81
2022/02/12 07:00:56;;;;;;;26.10;14.20;;;;;;;-0.34;77.73;102238.98;109306;1267;24303;-82
2022/02/12 07:03:26;;;;;;;23.80;13.20;;;;;;;-0.29;77.86;102241.20;109223;1267;21987;-81
2022/02/12 07:05:59;;;;;;;24.30;11.50;;;;;;;-0.22;77.87;102242.73;109621;1265;21991;-81
2022/02/12 07:08:32;;;;;;;15.80;10.30;;;;;;;-0.18;77.85;102245.70;109620;1264;23636;-82
2022/02/12 07:11:24;;;;;;;21.90;10.50;;;;;;;-0.15;77.81;102247.84;109162;1270;23729;-81
2022/02/12 07:13:55;;;;;;;24.50;12.30;;;;;;;-0.10;77.85;102256.33;109196;1270;22594;-79
2022/02/12 07:16:33;;;;;;;19.30;11.50;;;;;;;-0.06;77.82;102260.52;108803;1273;23668;-79
2022/02/12 07:19:09;;;;;;;21.90;11.80;;;;;;;-0.01;77.81;102262.27;108922;1279;22792;-81
2022/02/12 07:21:50;;;;;;;27.50;13.10;;;;;;;0.03;77.86;102265.59;108792;1274;21998;-81
2022/02/12 07:24:24;;;;;;;25.30;14.00;;;;;;;0.09;77.87;102268.68;108892;1273;21997;-82
2022/02/12 07:26:54;;;;;;;22.20;12.30;;;;;;;0.15;77.91;102276.61;108524;1279;23926;-81
2022/02/12 07:29:23;;;;;;;25.50;12.40;;;;;;;0.19;77.83;102282.02;108668;1273;22005;-81
2022/02/12 07:31:55;;;;;;;22.70;12.70;;;;;;;0.25;77.94;102284.73;108681;1274;22010;-80
2022/02/12 07:34:27;;;;;;;19.00;11.90;;;;;;;0.31;78.07;102286.63;108717;1273;22184;-80
2022/02/12 07:37:04;;;;;;;25.10;13.40;;;;;;;0.37;77.98;102290.40;109196;1267;22022;-80
2022/02/12 07:39:41;;;;;;;31.30;21.90;;;;;;;0.44;77.93;102293.09;109256;1267;21998;-80
2022/02/12 07:42:16;;;;;;;65.70;46.70;;;;;;;0.51;77.90;102298.05;109708;1267;22015;-82
2022/02/12 07:44:50;;;;;;;62.40;39.50;;;;;;;0.54;77.77;102302.27;109651;1263;21982;-80
2022/02/12 07:47:25;;;;;;;33.90;22.00;;;;;;;0.60;77.84;102296.69;109705;1263;21967;-80
2022/02/12 07:49:59;;;;;;;37.00;16.20;;;;;;;0.66;77.81;102297.15;110201;1261;21973;-81
2022/02/12 07:52:43;;;;;;;27.00;16.50;;;;;;;0.70;77.67;102297.70;109628;1267;22004;-82
2022/02/12 07:55:16;;;;;;;27.90;13.90;;;;;;;0.74;77.58;102298.27;109588;1265;23099;-78
2022/02/12 07:57:50;;;;;;;26.40;14.00;;;;;;;0.79;77.60;102299.79;109392;1267;24313;-76
2022/02/12 08:00:20;;;;;;;26.00;14.60;;;;;;;0.87;77.64;102297.23;109303;1267;22013;-77
2022/02/12 08:02:54;;;;;;;30.80;16.90;;;;;;;0.97;77.71;102295.14;108786;1273;22055;-77
2022/02/12 08:05:29;;;;;;;27.10;16.00;;;;;;;1.08;77.79;102290.05;108607;1273;22569;-78
2022/02/12 08:08:04;;;;;;;23.40;13.60;;;;;;;1.19;77.73;102292.19;108581;1276;22117;-81
2022/02/12 08:13:22;;;;;;;20.90;12.00;;;;;;;1.43;77.62;102303.09;108643;1276;23634;-79
2022/02/12 08:15:54;;;;;;;21.80;12.40;;;;;;;1.58;77.60;102306.95;108531;1276;21994;-79
2022/02/12 08:18:23;;;;;;;25.10;14.20;;;;;;;1.73;77.29;102312.45;108624;1276;23612;-79
2022/02/12 08:20:53;;;;;;;22.00;12.80;;;;;;;1.93;77.50;102318.23;108617;1273;22015;-79
2022/02/12 08:23:24;;;;;;;20.00;10.40;;;;;;;2.23;77.94;102323.73;108779;1271;21990;-78
2022/02/12 08:25:56;;;;;;;15.70;9.60;;;;;;;2.62;78.16;102326.94;108795;1273;23062;-78
2022/02/12 08:28:32;;;;;;;21.30;9.70;;;;;;;3.02;78.44;102331.17;109025;1273;21985;-79
2022/02/12 08:31:02;;;;;;;46.70;32.10;;;;;;;3.42;78.01;102332.61;108908;1267;22014;-79
2022/02/12 08:33:37;;;;;;;34.60;22.80;;;;;;;3.77;77.09;102329.17;109452;1267;24327;-79
2022/02/12 08:36:14;;;;;;;28.20;20.70;;;;;;;4.06;75.74;102326.90;109257;1267;22102;-79
2022/02/12 08:38:44;;;;;;;27.90;18.20;;;;;;;4.30;74.32;102330.17;109411;1262;21980;-78
2022/02/12 08:41:16;;;;;;;29.20;21.00;;;;;;;4.56;73.60;102337.36;109695;1262;21947;-78
2022/02/12 08:43:45;;;;;;;31.10;21.60;;;;;;;4.91;73.57;102336.73;109789;1261;23611;-80
2022/02/12 08:46:17;;;;;;;25.10;17.80;;;;;;;5.28;73.11;102337.54;109690;1260;22295;-80
2022/02/12 08:48:47;;;;;;;23.80;15.60;;;;;;;5.51;71.36;102335.54;109108;1267;22006;-81
2022/02/12 08:51:17;;;;;;;19.70;12.60;;;;;;;5.69;70.09;102336.82;109473;1268;21985;-80
2022/02/12 08:53:49;;;;;;;24.90;14.30;;;;;;;5.81;69.12;102339.95;109065;1270;22983;-79
2022/02/12 08:56:21;;;;;;;19.00;12.00;;;;;;;5.99;69.08;102347.16;109035;1270;22080;-80
2022/02/12 08:58:51;;;;;;;20.70;11.90;;;;;;;6.11;67.73;102353.47;108800;1273;23619;-80
2022/02/12 09:01:21;;;;;;;27.70;14.80;;;;;;;6.15;66.78;102358.34;109042;1273;22051;-80
2022/02/12 09:03:50;;;;;;;24.60;13.80;;;;;;;6.21;66.06;102354.81;109036;1270;22013;-80
2022/02/12 09:06:20;;;;;;;26.10;17.60;;;;;;;6.23;65.15;102356.27;109016;1273;22917;-80
2022/02/12 09:08:51;;;;;;;31.20;22.00;;;;;;;6.30;65.29;102357.42;109028;1273;22012;-80
2022/02/12 09:11:31;;;;;;;29.30;19.60;;;;;;;6.51;65.17;102356.20;108914;1267;22509;-79
2022/02/12 09:14:04;;;;;;;21.40;14.00;;;;;;;6.52;64.11;102358.76;109301;1264;21978;-80
2022/02/12 09:16:49;;;;;;;24.00;13.00;;;;;;;6.40;62.70;102358.56;109247;1267;21984;-81
2022/02/12 09:19:22;;;;;;;36.50;27.20;;;;;;;6.19;62.40;102358.25;109372;1265;23617;-79
2022/02/12 09:21:59;;;;;;;23.40;13.60;;;;;;;6.00;62.32;102354.61;108995;1270;22276;-82
2022/02/12 09:24:44;;;;;;;20.10;13.80;;;;;;;5.88;62.28;102354.59;109174;1267;22285;-81
2022/02/12 09:27:13;;;;;;;22.50;12.20;;;;;;;5.80;62.46;102359.27;108996;1270;21998;-82
2022/02/12 09:29:54;;;;;;;23.10;14.60;;;;;;;5.90;63.69;102362.20;109068;1273;21968;-81
2022/02/12 09:32:37;;;;;;;;;;;;;;;5.98;63.10;102363.71;109059;1272;22459;-82
2022/02/12 09:35:16;;;;;;;30.60;19.80;;;;;;;5.83;62.51;102362.24;108956;1273;22015;-80
2022/02/12 09:37:47;;;;;;;33.10;29.70;;;;;;;5.76;62.57;102363.52;108375;1279;22006;-82
2022/02/12 09:40:17;;;;;;;27.10;19.70;;;;;;;5.67;61.86;102366.81;108556;1275;22064;-81
2022/02/12 09:42:48;;;;;;;28.00;23.90;;;;;;;5.48;61.34;102366.67;108604;1279;22002;-81
2022/02/12 09:45:17;;;;;;;31.60;22.00;;;;;;;5.23;60.98;102367.36;108419;1279;22022;-81
2022/02/12 09:47:51;;;;;;;38.50;31.50;;;;;;;5.02;61.75;102373.39;108601;1278;21986;-80
2022/02/12 09:50:22;;;;;;;30.70;24.10;;;;;;;4.93;62.13;102372.11;108716;1276;22012;-80
2022/02/12 09:52:55;;;;;;;31.70;22.80;;;;;;;4.86;62.53;102373.01;108735;1273;21971;-82
2022/02/12 09:55:35;;;;;;;27.40;21.40;;;;;;;4.86;62.94;102372.64;108376;1277;21998;-83
2022/02/12 09:58:16;;;;;;;;;;;;;;;;;;;;;
2022/02/12 10:00:47;;;;;;;30.50;23.60;;;;;;;4.87;62.73;102368.25;108793;1273;22108;-80
2022/02/12 10:03:17;;;;;;;49.80;36.40;;;;;;;4.82;62.50;102371.29;108962;1270;22455;-81
2022/02/12 10:05:55;;;;;;;36.10;27.40;;;;;;;4.81;62.65;102366.11;109307;1266;22072;-82
2022/02/12 10:08:34;;;;;;;32.60;26.10;;;;;;;4.74;62.55;102366.11;109212;1270;24422;-81
2022/02/12 10:11:19;;;;;;;50.30;35.90;;;;;;;4.77;63.00;102365.98;109192;1266;22504;-81
2022/02/12 10:14:11;;;;;;;43.00;32.40;;;;;;;4.90;63.79;102363.55;109605;1263;22003;-81
2022/02/12 10:16:55;;;;;;;50.30;35.20;;;;;;;5.16;64.50;102361.09;109417;1265;21988;-80
2022/02/12 10:19:38;;;;;;;50.80;32.90;;;;;;;5.47;64.62;102358.67;109644;1264;23804;-80
2022/02/12 10:22:15;;;;;;;41.40;27.90;;;;;;;5.81;64.37;102356.42;109522;1265;22022;-79
2022/02/12 10:24:51;;;;;;;53.70;43.00;;;;;;;6.10;63.65;102357.06;108995;1270;21997;-81
2022/02/12 10:27:26;;;;;;;38.90;30.80;;;;;;;6.37;62.90;102357.52;109117;1270;22017;-82
2022/02/12 10:30:02;;;;;;;37.40;29.10;;;;;;;6.61;62.30;102355.59;109065;1270;23842;-82
2022/02/12 10:32:39;;;;;;;38.10;29.50;;;;;;;6.87;61.82;102360.31;109079;1268;21994;-80
2022/02/12 10:35:13;;;;;;;41.50;30.60;;;;;;;7.20;61.41;102355.75;109051;1270;22052;-80
2022/02/12 10:37:48;;;;;;;42.10;30.90;;;;;;;7.55;60.70;102348.27;108771;1275;23641;-80
2022/02/12 10:40:18;;;;;;;;;;;;;;;8.03;60.72;102347.08;108939;1273;22435;-80
2022/02/12 10:42:51;;;;;;;45.80;32.10;;;;;;;8.44;59.73;102350.45;109080;1270;22439;-81
2022/02/12 10:45:26;;;;;;;32.10;24.90;;;;;;;9.06;59.66;102349.50;109217;1269;22001;-81
2022/02/12 10:47:58;;;;;;;27.10;21.70;;;;;;;9.74;58.20;102346.63;108877;1273;21999;-81
2022/02/12 10:50:31;;;;;;;28.90;25.80;;;;;;;10.44;56.59;102350.21;108768;1276;22923;-81
2022/02/12 10:53:05;;;;;;;27.80;22.50;;;;;;;11.25;56.73;102346.52;108806;1273;22005;-82
2022/02/12 10:55:44;;;;;;;30.40;24.40;;;;;;;12.18;56.05;102346.09;108424;1276;23889;-81
2022/02/12 10:58:20;;;;;;;23.60;20.30;;;;;;;13.08;53.90;102345.39;108756;1276;23029;-81
2022/02/12 11:00:52;;;;;;;23.90;18.00;;;;;;;13.54;50.37;102340.20;108674;1276;21993;-81
2022/02/12 11:03:26;;;;;;;24.00;19.00;;;;;;;13.90;49.95;102339.46;108715;1276;22987;-82
2022/02/12 11:06:01;;;;;;;23.00;18.40;;;;;;;14.57;49.28;102344.72;108785;1273;22013;-82
2022/02/12 11:08:33;;;;;;;25.20;20.50;;;;;;;15.26;47.24;102351.21;108854;1270;22577;-83
2022/02/12 11:11:05;;;;;;;20.50;17.00;;;;;;;15.66;44.85;102353.88;108675;1277;22003;-82
2022/02/12 11:13:39;;;;;;;18.90;15.60;;;;;;;15.94;42.90;102350.93;108922;1267;22496;-81
2022/02/12 11:16:12;;;;;;;25.70;20.50;;;;;;;15.54;39.70;102351.52;109392;1267;23738;-83
2022/02/12 11:18:42;;;;;;;19.90;17.60;;;;;;;14.87;40.03;102349.65;109152;1267;22008;-81
2022/02/12 11:21:15;;;;;;;22.80;19.30;;;;;;;14.51;39.72;102342.48;109163;1267;24376;-82
2022/02/12 11:24:06;;;;;;;19.90;14.70;;;;;;;13.63;38.72;102336.77;109226;1267;23838;-82
2022/02/12 11:26:47;;;;;;;23.90;20.00;;;;;;;12.87;40.59;102337.50;108739;1274;23681;-82
2022/02/12 11:29:40;;;;;;;27.40;20.40;;;;;;;12.38;41.33;102329.34;108813;1270;23710;-82
2022/02/12 11:32:45;;;;;;;27.10;21.90;;;;;;;11.89;41.76;102328.23;108994;1270;22000;-82
2022/02/12 11:35:17;;;;;;;23.30;18.60;;;;;;;11.21;41.50;102327.71;109040;1270;21998;-80
2022/02/12 11:37:54;;;;;;;25.10;17.30;;;;;;;10.12;40.91;102320.57;109040;1270;22090;-82
2022/02/12 11:40:28;;;;;;;29.50;21.80;;;;;;;9.19;42.35;102318.46;108649;1277;22768;-82
2022/02/12 11:43:06;;;;;;;22.60;20.20;;;;;;;8.57;43.40;102320.92;108854;1276;22011;-83
2022/02/12 11:45:46;;;;;;;23.40;19.00;;;;;;;7.96;44.41;102324.37;108884;1273;21988;-81
2022/02/12 11:48:26;;;;;;;19.80;14.20;;;;;;;7.39;45.30;102328.10;109104;1267;23138;-82
2022/02/12 11:51:05;;;;;;;19.10;12.60;;;;;;;6.91;46.47;102320.80;109237;1267;22004;-81
2022/02/12 11:53:50;;;;;;;17.80;12.00;;;;;;;6.62;47.28;102319.77;109203;1267;21986;-80
2022/02/12 11:56:40;;;;;;;14.50;11.50;;;;;;;6.35;47.73;102315.30;108980;1270;22004;-81
2022/02/12 11:59:19;;;;;;;15.40;9.40;;;;;;;6.13;48.44;102309.27;108649;1276;23105;-82